sensor_id;sensor_type;location;lat;lon;timestamp;pressure;altitude;pressure_sealevel;temperature;humidity
27334;BME280;14817;57.104;-2.094;2023-04-24T00:01:02;99878.06;;;4.29;100.00
27334;BME280;14817;57.104;-2.094;2023-04-24T00:03:28;99883.59;;;4.26;100.00
27334;BME280;14817;57.104;-2.094;2023-04-24T00:05:56;99886.31;;;4.15;100.00
27334;BME280;14817;57.104;-2.094;2023-04-24T00:08:23;99887.28;;;4.14;100.00
27334;BME280;14817;57.104;-2.094;2023-04-24T00:10:50;99889.69;;;4.17;100.00
27334;BME280;14817;57.104;-2.094;2023-04-24T00:13:19;99883.44;;;4.18;100.00
27334;BME280;14817;57.104;-2.094;2023-04-24T00:15:45;99879.06;;;4.17;100.00
27334;BME280;14817;57.104;-2.094;2023-04-24T00:18:12;99887.88;;;4.18;100.00
27334;BME280;14817;57.104;-2.094;2023-04-24T00:20:39;99890.72;;;4.26;100.00
27334;BME280;14817;57.104;-2.094;2023-04-24T00:23:06;99880.00;;;4.27;100.00
27334;BME280;14817;57.104;-2.094;2023-04-24T00:25:33;99891.25;;;4.41;100.00
27334;BME280;14817;57.104;-2.094;2023-04-24T00:28:00;99890.94;;;4.34;100.00
27334;BME280;14817;57.104;-2.094;2023-04-24T00:30:27;99901.66;;;4.33;100.00
27334;BME280;14817;57.104;-2.094;2023-04-24T00:32:54;99908.69;;;4.22;100.00
27334;BME280;14817;57.104;-2.094;2023-04-24T00:35:22;99891.28;;;4.08;100.00
27334;BME280;14817;57.104;-2.094;2023-04-24T00:37:49;99892.66;;;3.92;100.00
27334;BME280;14817;57.104;-2.094;2023-04-24T00:40:16;99898.22;;;3.88;100.00
27334;BME280;14817;57.104;-2.094;2023-04-24T00:42:43;99907.91;;;3.67;100.00
27334;BME280;14817;57.104;-2.094;2023-04-24T00:45:11;99898.28;;;3.43;100.00
27334;BME280;14817;57.104;-2.094;2023-04-24T00:47:38;99886.03;;;3.20;100.00
27334;BME280;14817;57.104;-2.094;2023-04-24T00:50:06;99898.09;;;3.35;100.00
27334;BME280;14817;57.104;-2.094;2023-04-24T00:52:34;99899.28;;;3.31;100.00
27334;BME280;14817;57.104;-2.094;2023-04-24T00:55:01;99907.34;;;3.30;100.00
27334;BME280;14817;57.104;-2.094;2023-04-24T00:57:28;99883.78;;;3.26;100.00
27334;BME280;14817;57.104;-2.094;2023-04-24T00:59:54;99868.25;;;3.33;100.00
27334;BME280;14817;57.104;-2.094;2023-04-24T01:02:22;99872.34;;;3.37;100.00
27334;BME280;14817;57.104;-2.094;2023-04-24T01:04:50;99868.69;;;3.50;100.00
27334;BME280;14817;57.104;-2.094;2023-04-24T01:07:21;99877.34;;;3.52;100.00
27334;BME280;14817;57.104;-2.094;2023-04-24T01:09:50;99880.38;;;3.47;100.00
27334;BME280;14817;57.104;-2.094;2023-04-24T01:12:19;99872.53;;;3.45;100.00
27334;BME280;14817;57.104;-2.094;2023-04-24T01:14:46;99876.06;;;3.46;100.00
27334;BME280;14817;57.104;-2.094;2023-04-24T01:17:15;99874.97;;;3.48;100.00
27334;BME280;14817;57.104;-2.094;2023-04-24T01:19:43;99877.34;;;3.52;100.00
27334;BME280;14817;57.104;-2.094;2023-04-24T01:22:16;99874.31;;;3.56;100.00
27334;BME280;14817;57.104;-2.094;2023-04-24T01:24:43;99875.41;;;3.65;100.00
27334;BME280;14817;57.104;-2.094;2023-04-24T01:27:11;99891.88;;;3.68;100.00
27334;BME280;14817;57.104;-2.094;2023-04-24T01:29:39;99889.50;;;3.65;100.00
27334;BME280;14817;57.104;-2.094;2023-04-24T01:32:08;99891.66;;;3.72;100.00
27334;BME280;14817;57.104;-2.094;2023-04-24T01:34:35;99904.63;;;3.75;100.00
27334;BME280;14817;57.104;-2.094;2023-04-24T01:37:03;99909.91;;;3.75;100.00
27334;BME280;14817;57.104;-2.094;2023-04-24T01:39:32;99917.00;;;3.85;100.00
27334;BME280;14817;57.104;-2.094;2023-04-24T01:42:00;99910.38;;;3.91;100.00
27334;BME280;14817;57.104;-2.094;2023-04-24T01:44:28;99904.69;;;3.96;100.00
27334;BME280;14817;57.104;-2.094;2023-04-24T01:46:55;99897.56;;;3.96;100.00
27334;BME280;14817;57.104;-2.094;2023-04-24T01:49:23;99900.56;;;4.03;100.00
27334;BME280;14817;57.104;-2.094;2023-04-24T01:51:49;99900.72;;;4.01;100.00
27334;BME280;14817;57.104;-2.094;2023-04-24T01:54:16;99893.47;;;4.03;100.00
27334;BME280;14817;57.104;-2.094;2023-04-24T01:56:43;99886.94;;;4.07;100.00
27334;BME280;14817;57.104;-2.094;2023-04-24T01:59:11;99898.19;;;4.00;100.00
27334;BME280;14817;57.104;-2.094;2023-04-24T02:01:38;99899.44;;;3.84;100.00
27334;BME280;14817;57.104;-2.094;2023-04-24T02:04:06;99911.47;;;3.88;100.00
27334;BME280;14817;57.104;-2.094;2023-04-24T02:06:35;99901.94;;;3.86;100.00
27334;BME280;14817;57.104;-2.094;2023-04-24T02:09:02;99915.31;;;3.84;100.00
27334;BME280;14817;57.104;-2.094;2023-04-24T02:11:29;99908.09;;;3.86;100.00
27334;BME280;14817;57.104;-2.094;2023-04-24T02:13:57;99912.44;;;3.76;100.00
27334;BME280;14817;57.104;-2.094;2023-04-24T02:16:24;99910.28;;;3.70;100.00
27334;BME280;14817;57.104;-2.094;2023-04-24T02:18:51;99914.38;;;3.74;100.00
27334;BME280;14817;57.104;-2.094;2023-04-24T02:21:18;99914.38;;;3.74;100.00
27334;BME280;14817;57.104;-2.094;2023-04-24T02:23:45;99916.31;;;3.72;100.00
27334;BME280;14817;57.104;-2.094;2023-04-24T02:26:12;99925.47;;;3.68;100.00
27334;BME280;14817;57.104;-2.094;2023-04-24T02:28:40;99934.09;;;3.81;100.00
27334;BME280;14817;57.104;-2.094;2023-04-24T02:31:07;99922.56;;;3.82;100.00
27334;BME280;14817;57.104;-2.094;2023-04-24T02:33:34;99921.59;;;3.72;100.00
27334;BME280;14817;57.104;-2.094;2023-04-24T02:36:02;99917.03;;;3.74;100.00
27334;BME280;14817;57.104;-2.094;2023-04-24T02:38:29;99921.94;;;3.79;100.00
27334;BME280;14817;57.104;-2.094;2023-04-24T02:40:56;99922.56;;;3.82;100.00
27334;BME280;14817;57.104;-2.094;2023-04-24T02:43:25;99930.13;;;3.87;100.00
27334;BME280;14817;57.104;-2.094;2023-04-24T02:45:52;99927.25;;;3.79;100.00
27334;BME280;14817;57.104;-2.094;2023-04-24T02:48:19;99925.78;;;3.86;100.00
27334;BME280;14817;57.104;-2.094;2023-04-24T02:50:47;99925.19;;;3.82;100.00
27334;BME280;14817;57.104;-2.094;2023-04-24T02:53:14;99936.75;;;3.81;100.00
27334;BME280;14817;57.104;-2.094;2023-04-24T02:55:41;99934.69;;;3.85;100.00
27334;BME280;14817;57.104;-2.094;2023-04-24T02:58:07;99929.78;;;3.80;100.00
27334;BME280;14817;57.104;-2.094;2023-04-24T03:00:34;99925.66;;;3.87;100.00
27334;BME280;14817;57.104;-2.094;2023-04-24T03:03:01;99932.66;;;3.88;100.00
27334;BME280;14817;57.104;-2.094;2023-04-24T03:05:28;99934.69;;;3.85;100.00
27334;BME280;14817;57.104;-2.094;2023-04-24T03:07:54;99933.50;;;3.89;100.00
27334;BME280;14817;57.104;-2.094;2023-04-24T03:10:21;99931.19;;;3.96;100.00
27334;BME280;14817;57.104;-2.094;2023-04-24T03:12:51;99936.75;;;3.93;100.00
27334;BME280;14817;57.104;-2.094;2023-04-24T03:15:17;99927.31;;;4.00;100.00
27334;BME280;14817;57.104;-2.094;2023-04-24T03:17:44;99932.34;;;4.03;100.00
27334;BME280;14817;57.104;-2.094;2023-04-24T03:20:11;99924.28;;;4.04;100.00
27334;BME280;14817;57.104;-2.094;2023-04-24T03:22:39;99929.09;;;4.11;100.00
27334;BME280;14817;57.104;-2.094;2023-04-24T03:25:07;99926.00;;;4.05;100.00
27334;BME280;14817;57.104;-2.094;2023-04-24T03:27:36;99938.53;;;4.03;100.00
27334;BME280;14817;57.104;-2.094;2023-04-24T03:30:33;99940.91;;;4.06;100.00
27334;BME280;14817;57.104;-2.094;2023-04-24T03:33:01;99935.72;;;4.05;100.00
27334;BME280;14817;57.104;-2.094;2023-04-24T03:35:32;99946.09;;;4.08;100.00
27334;BME280;14817;57.104;-2.094;2023-04-24T03:38:02;99949.69;;;4.18;100.00
27334;BME280;14817;57.104;-2.094;2023-04-24T03:40:55;99958.56;;;4.17;100.00
27334;BME280;14817;57.104;-2.094;2023-04-24T03:43:37;99958.06;;;4.23;100.00
27334;BME280;14817;57.104;-2.094;2023-04-24T03:46:05;99946.03;;;4.19;100.00
27334;BME280;14817;57.104;-2.094;2023-04-24T03:48:36;99940.84;;;4.18;100.00
27334;BME280;14817;57.104;-2.094;2023-04-24T03:51:02;99946.66;;;4.12;100.00
27334;BME280;14817;57.104;-2.094;2023-04-24T03:53:30;99922.47;;;4.16;100.00
27334;BME280;14817;57.104;-2.094;2023-04-24T03:55:58;99929.31;;;4.19;100.00
27334;BME280;14817;57.104;-2.094;2023-04-24T03:58:26;99927.03;;;4.14;100.00
27334;BME280;14817;57.104;-2.094;2023-04-24T04:00:54;99921.47;;;4.17;100.00
27334;BME280;14817;57.104;-2.094;2023-04-24T04:03:38;99939.66;;;4.22;100.00
27334;BME280;14817;57.104;-2.094;2023-04-24T04:06:06;99941.91;;;4.26;100.00
27334;BME280;14817;57.104;-2.094;2023-04-24T04:08:34;99942.19;;;4.23;100.00
27334;BME280;14817;57.104;-2.094;2023-04-24T04:11:01;99945.28;;;4.28;100.00
27334;BME280;14817;57.104;-2.094;2023-04-24T04:13:30;99945.03;;;4.32;100.00
27334;BME280;14817;57.104;-2.094;2023-04-24T04:15:58;99944.22;;;4.31;100.00
27334;BME280;14817;57.104;-2.094;2023-04-24T04:18:24;99952.06;;;4.21;100.00
27334;BME280;14817;57.104;-2.094;2023-04-24T04:20:51;99956.16;;;4.25;100.00
27334;BME280;14817;57.104;-2.094;2023-04-24T04:23:18;99956.16;;;4.25;100.00
27334;BME280;14817;57.104;-2.094;2023-04-24T04:26:08;99963.38;;;4.23;100.00
27334;BME280;14817;57.104;-2.094;2023-04-24T04:28:47;99959.75;;;4.24;100.00
27334;BME280;14817;57.104;-2.094;2023-04-24T04:31:15;99963.38;;;4.23;100.00
27334;BME280;14817;57.104;-2.094;2023-04-24T04:33:43;99968.84;;;4.11;100.00
27334;BME280;14817;57.104;-2.094;2023-04-24T04:36:10;99963.53;;;4.11;100.00
27334;BME280;14817;57.104;-2.094;2023-04-24T04:38:43;99974.03;;;4.01;100.00
27334;BME280;14817;57.104;-2.094;2023-04-24T04:41:22;99973.56;;;3.96;100.00
27334;BME280;14817;57.104;-2.094;2023-04-24T04:43:49;99973.34;;;3.87;100.00
27334;BME280;14817;57.104;-2.094;2023-04-24T04:46:16;99964.78;;;3.84;100.00
27334;BME280;14817;57.104;-2.094;2023-04-24T04:48:56;99971.44;;;3.78;100.00
27334;BME280;14817;57.104;-2.094;2023-04-24T04:51:23;99974.31;;;3.75;100.00
27334;BME280;14817;57.104;-2.094;2023-04-24T04:53:50;99977.22;;;3.72;100.00
27334;BME280;14817;57.104;-2.094;2023-04-24T04:56:17;99973.13;;;3.68;100.00
27334;BME280;14817;57.104;-2.094;2023-04-24T04:58:45;99976.75;;;3.67;100.00
27334;BME280;14817;57.104;-2.094;2023-04-24T05:01:14;99975.31;;;3.63;100.00
27334;BME280;14817;57.104;-2.094;2023-04-24T05:03:45;99984.44;;;3.70;100.00
27334;BME280;14817;57.104;-2.094;2023-04-24T05:06:18;99999.09;;;3.85;100.00
27334;BME280;14817;57.104;-2.094;2023-04-24T05:08:45;100003.69;;;3.83;100.00
27334;BME280;14817;57.104;-2.094;2023-04-24T05:11:35;100009.47;;;3.55;100.00
27334;BME280;14817;57.104;-2.094;2023-04-24T05:14:02;100007.53;;;3.45;100.00
27334;BME280;14817;57.104;-2.094;2023-04-24T05:16:37;99986.63;;;3.31;100.00
27334;BME280;14817;57.104;-2.094;2023-04-24T05:19:06;100010.06;;;3.24;100.00
27334;BME280;14817;57.104;-2.094;2023-04-24T05:21:37;99998.50;;;3.14;100.00
27334;BME280;14817;57.104;-2.094;2023-04-24T05:24:06;100001.59;;;3.08;100.00
27334;BME280;14817;57.104;-2.094;2023-04-24T05:27:03;100006.06;;;3.19;100.00
27334;BME280;14817;57.104;-2.094;2023-04-24T05:29:40;100013.53;;;3.25;100.00
27334;BME280;14817;57.104;-2.094;2023-04-24T05:32:08;100004.88;;;3.34;100.00
27334;BME280;14817;57.104;-2.094;2023-04-24T05:34:35;100010.06;;;3.24;100.00
27334;BME280;14817;57.104;-2.094;2023-04-24T05:37:02;100010.69;;;3.39;100.00
27334;BME280;14817;57.104;-2.094;2023-04-24T05:39:34;100025.69;;;3.39;100.00
27334;BME280;14817;57.104;-2.094;2023-04-24T05:42:02;100022.19;;;3.95;100.00
27334;BME280;14817;57.104;-2.094;2023-04-24T05:44:30;100014.38;;;4.80;100.00
27334;BME280;14817;57.104;-2.094;2023-04-24T05:46:59;100006.44;;;5.53;100.00
27334;BME280;14817;57.104;-2.094;2023-04-24T05:49:26;100013.94;;;5.38;100.00
27334;BME280;14817;57.104;-2.094;2023-04-24T05:51:53;100008.09;;;5.44;100.00
27334;BME280;14817;57.104;-2.094;2023-04-24T05:54:21;100022.06;;;5.46;100.00
27334;BME280;14817;57.104;-2.094;2023-04-24T05:56:49;100031.59;;;4.86;100.00
27334;BME280;14817;57.104;-2.094;2023-04-24T05:59:25;100025.91;;;4.58;100.00
27334;BME280;14817;57.104;-2.094;2023-04-24T06:01:52;100033.47;;;4.63;100.00
27334;BME280;14817;57.104;-2.094;2023-04-24T06:04:21;100030.28;;;4.48;100.00
27334;BME280;14817;57.104;-2.094;2023-04-24T06:06:50;100034.75;;;4.47;100.00
27334;BME280;14817;57.104;-2.094;2023-04-24T06:09:22;100041.50;;;4.52;100.00
27334;BME280;14817;57.104;-2.094;2023-04-24T06:11:50;100076.63;;;4.65;100.00
27334;BME280;14817;57.104;-2.094;2023-04-24T06:14:23;100086.97;;;4.24;100.00
27334;BME280;14817;57.104;-2.094;2023-04-24T06:17:12;100072.00;;;4.46;100.00
27334;BME280;14817;57.104;-2.094;2023-04-24T06:19:40;100054.19;;;4.37;100.00
27334;BME280;14817;57.104;-2.094;2023-04-24T06:22:07;100053.63;;;4.11;100.00
27334;BME280;14817;57.104;-2.094;2023-04-24T06:24:36;100064.38;;;3.98;100.00
27334;BME280;14817;57.104;-2.094;2023-04-24T06:27:03;100073.28;;;3.85;100.00
27334;BME280;14817;57.104;-2.094;2023-04-24T06:29:30;100089.16;;;3.85;100.00
27334;BME280;14817;57.104;-2.094;2023-04-24T06:31:57;100083.28;;;3.93;100.00
27334;BME280;14817;57.104;-2.094;2023-04-24T06:34:23;100081.22;;;3.85;100.00
27334;BME280;14817;57.104;-2.094;2023-04-24T06:36:50;100091.81;;;3.97;100.00
27334;BME280;14817;57.104;-2.094;2023-04-24T06:39:17;100087.34;;;4.20;100.00
27334;BME280;14817;57.104;-2.094;2023-04-24T06:41:44;100097.28;;;4.50;100.00
27334;BME280;14817;57.104;-2.094;2023-04-24T06:44:18;100100.19;;;4.47;100.00
27334;BME280;14817;57.104;-2.094;2023-04-24T06:46:44;100101.41;;;4.43;100.00
27334;BME280;14817;57.104;-2.094;2023-04-24T06:49:11;100114.94;;;4.40;100.00
27334;BME280;14817;57.104;-2.094;2023-04-24T06:51:38;100122.88;;;4.40;100.00
27334;BME280;14817;57.104;-2.094;2023-04-24T06:54:05;100132.50;;;4.41;100.00
27334;BME280;14817;57.104;-2.094;2023-04-24T06:56:31;100122.63;;;4.20;100.00
27334;BME280;14817;57.104;-2.094;2023-04-24T06:59:00;100109.88;;;4.03;100.00
27334;BME280;14817;57.104;-2.094;2023-04-24T07:01:27;100103.84;;;3.89;100.00
27334;BME280;14817;57.104;-2.094;2023-04-24T07:03:54;100110.47;;;3.84;100.00
27334;BME280;14817;57.104;-2.094;2023-04-24T07:06:22;100113.00;;;3.85;100.00
27334;BME280;14817;57.104;-2.094;2023-04-24T07:08:50;100108.22;;;3.91;100.00
27334;BME280;14817;57.104;-2.094;2023-04-24T07:11:17;100111.78;;;4.01;100.00
27334;BME280;14817;57.104;-2.094;2023-04-24T07:13:44;100111.31;;;4.07;100.00
27334;BME280;14817;57.104;-2.094;2023-04-24T07:16:11;100106.16;;;4.17;100.00
27334;BME280;14817;57.104;-2.094;2023-04-24T07:18:38;100107.09;;;4.16;100.00
27334;BME280;14817;57.104;-2.094;2023-04-24T07:21:06;100113.25;;;4.27;100.00
27334;BME280;14817;57.104;-2.094;2023-04-24T07:23:33;100110.34;;;4.19;100.00
27334;BME280;14817;57.104;-2.094;2023-04-24T07:26:00;100109.38;;;4.32;100.00
27334;BME280;14817;57.104;-2.094;2023-04-24T07:28:27;100111.91;;;4.44;100.00
27334;BME280;14817;57.104;-2.094;2023-04-24T07:30:57;100105.84;;;4.54;100.00
27334;BME280;14817;57.104;-2.094;2023-04-24T07:33:26;100113.41;;;4.69;100.00
27334;BME280;14817;57.104;-2.094;2023-04-24T07:35:53;100113.50;;;5.11;100.00
27334;BME280;14817;57.104;-2.094;2023-04-24T07:38:19;100118.56;;;5.15;100.00
27334;BME280;14817;57.104;-2.094;2023-04-24T07:40:49;100126.72;;;5.23;100.00
27334;BME280;14817;57.104;-2.094;2023-04-24T07:43:16;100124.09;;;5.23;100.00
27334;BME280;14817;57.104;-2.094;2023-04-24T07:45:43;100113.13;;;5.37;100.00
27334;BME280;14817;57.104;-2.094;2023-04-24T07:48:10;100124.53;;;5.49;100.00
27334;BME280;14817;57.104;-2.094;2023-04-24T07:50:37;100113.53;;;5.53;100.00
27334;BME280;14817;57.104;-2.094;2023-04-24T07:53:04;100123.63;;;5.81;100.00
27334;BME280;14817;57.104;-2.094;2023-04-24T07:55:30;100118.53;;;7.57;100.00
27334;BME280;14817;57.104;-2.094;2023-04-24T07:57:57;100118.72;;;8.21;100.00
27334;BME280;14817;57.104;-2.094;2023-04-24T08:00:24;100122.25;;;9.13;100.00
27334;BME280;14817;57.104;-2.094;2023-04-24T08:02:51;100127.59;;;9.13;100.00
27334;BME280;14817;57.104;-2.094;2023-04-24T08:05:18;100132.56;;;7.97;100.00
27334;BME280;14817;57.104;-2.094;2023-04-24T08:07:46;100134.41;;;7.96;100.00
27334;BME280;14817;57.104;-2.094;2023-04-24T08:10:15;100137.69;;;8.18;100.00
27334;BME280;14817;57.104;-2.094;2023-04-24T08:12:41;100144.84;;;9.54;100.00
27334;BME280;14817;57.104;-2.094;2023-04-24T08:15:08;100142.50;;;9.33;100.00
27334;BME280;14817;57.104;-2.094;2023-04-24T08:17:36;100156.53;;;9.53;100.00
27334;BME280;14817;57.104;-2.094;2023-04-24T08:20:03;100153.78;;;9.89;100.00
27334;BME280;14817;57.104;-2.094;2023-04-24T08:22:31;100161.72;;;9.01;100.00
27334;BME280;14817;57.104;-2.094;2023-04-24T08:24:59;100172.34;;;8.65;100.00
27334;BME280;14817;57.104;-2.094;2023-04-24T08:27:26;100158.72;;;8.21;100.00
27334;BME280;14817;57.104;-2.094;2023-04-24T08:29:54;100160.75;;;8.47;100.00
27334;BME280;14817;57.104;-2.094;2023-04-24T08:32:21;100171.66;;;8.26;100.00
27334;BME280;14817;57.104;-2.094;2023-04-24T08:34:47;100174.84;;;7.82;100.00
27334;BME280;14817;57.104;-2.094;2023-04-24T08:37:15;100167.72;;;7.63;100.00
27334;BME280;14817;57.104;-2.094;2023-04-24T08:39:42;100172.75;;;7.76;100.00
27334;BME280;14817;57.104;-2.094;2023-04-24T08:42:11;100173.44;;;7.78;100.00
27334;BME280;14817;57.104;-2.094;2023-04-24T08:44:38;100169.34;;;7.93;100.00
27334;BME280;14817;57.104;-2.094;2023-04-24T08:47:07;100176.31;;;8.14;100.00
27334;BME280;14817;57.104;-2.094;2023-04-24T08:49:36;100181.00;;;8.39;100.00
27334;BME280;14817;57.104;-2.094;2023-04-24T08:52:03;100185.84;;;8.26;100.00
27334;BME280;14817;57.104;-2.094;2023-04-24T08:54:31;100178.75;;;7.97;100.00
27334;BME280;14817;57.104;-2.094;2023-04-24T08:57:00;100199.84;;;7.23;100.00
27334;BME280;14817;57.104;-2.094;2023-04-24T08:59:28;100207.63;;;6.85;100.00
27334;BME280;14817;57.104;-2.094;2023-04-24T09:01:55;100211.78;;;6.68;100.00
27334;BME280;14817;57.104;-2.094;2023-04-24T09:04:23;100213.44;;;6.60;100.00
27334;BME280;14817;57.104;-2.094;2023-04-24T09:06:56;100204.63;;;6.69;100.00
27334;BME280;14817;57.104;-2.094;2023-04-24T09:09:24;100209.91;;;7.09;100.00
27334;BME280;14817;57.104;-2.094;2023-04-24T09:11:52;100216.53;;;7.64;100.00
27334;BME280;14817;57.104;-2.094;2023-04-24T09:14:21;100212.09;;;8.21;100.00
27334;BME280;14817;57.104;-2.094;2023-04-24T09:16:50;100211.19;;;9.05;100.00
27334;BME280;14817;57.104;-2.094;2023-04-24T09:19:17;100210.22;;;9.24;100.00
27334;BME280;14817;57.104;-2.094;2023-04-24T09:21:47;100208.91;;;8.83;100.00
27334;BME280;14817;57.104;-2.094;2023-04-24T09:24:19;100206.16;;;8.74;100.00
27334;BME280;14817;57.104;-2.094;2023-04-24T09:26:56;100205.06;;;8.67;100.00
27334;BME280;14817;57.104;-2.094;2023-04-24T09:29:28;100209.25;;;8.42;100.00
27334;BME280;14817;57.104;-2.094;2023-04-24T09:31:55;100218.16;;;8.04;100.00
27334;BME280;14817;57.104;-2.094;2023-04-24T09:34:23;100217.06;;;7.87;100.00
27334;BME280;14817;57.104;-2.094;2023-04-24T09:36:51;100225.09;;;7.57;100.00
27334;BME280;14817;57.104;-2.094;2023-04-24T09:39:18;100223.34;;;7.08;100.00
27334;BME280;14817;57.104;-2.094;2023-04-24T09:44:20;100232.78;;;7.31;100.00
27334;BME280;14817;57.104;-2.094;2023-04-24T09:46:55;100225.53;;;7.43;100.00
27334;BME280;14817;57.104;-2.094;2023-04-24T09:49:27;100235.75;;;7.67;100.00
27334;BME280;14817;57.104;-2.094;2023-04-24T09:52:08;100224.19;;;8.06;100.00
27334;BME280;14817;57.104;-2.094;2023-04-24T09:54:36;100237.84;;;7.64;100.00
27334;BME280;14817;57.104;-2.094;2023-04-24T09:57:04;100240.78;;;7.51;100.00
27334;BME280;14817;57.104;-2.094;2023-04-24T09:59:31;100241.75;;;7.11;100.00
27334;BME280;14817;57.104;-2.094;2023-04-24T10:02:00;100244.16;;;7.24;100.00
27334;BME280;14817;57.104;-2.094;2023-04-24T10:04:28;100246.69;;;7.54;100.00
27334;BME280;14817;57.104;-2.094;2023-04-24T10:06:56;100245.72;;;7.46;100.00
27334;BME280;14817;57.104;-2.094;2023-04-24T10:09:25;100249.22;;;7.56;100.00
27334;BME280;14817;57.104;-2.094;2023-04-24T10:11:53;100255.78;;;7.42;100.00
27334;BME280;14817;57.104;-2.094;2023-04-24T10:14:23;100252.88;;;7.45;100.00
27334;BME280;14817;57.104;-2.094;2023-04-24T10:16:54;100258.09;;;6.97;100.00
27334;BME280;14817;57.104;-2.094;2023-04-24T10:19:25;100269.50;;;7.08;100.00
27334;BME280;14817;57.104;-2.094;2023-04-24T10:21:52;100261.53;;;7.28;100.00
27334;BME280;14817;57.104;-2.094;2023-04-24T10:24:21;100268.84;;;7.45;100.00
27334;BME280;14817;57.104;-2.094;2023-04-24T10:26:47;100273.06;;;7.48;100.00
27334;BME280;14817;57.104;-2.094;2023-04-24T10:29:17;100272.31;;;7.36;100.00
27334;BME280;14817;57.104;-2.094;2023-04-24T10:31:44;100274.94;;;7.16;100.00
27334;BME280;14817;57.104;-2.094;2023-04-24T10:34:16;100285.66;;;7.46;100.00
27334;BME280;14817;57.104;-2.094;2023-04-24T10:36:50;100283.44;;;7.61;100.00
27334;BME280;14817;57.104;-2.094;2023-04-24T10:39:20;100269.28;;;7.80;100.00
27334;BME280;14817;57.104;-2.094;2023-04-24T10:41:54;100292.66;;;8.34;100.00
27334;BME280;14817;57.104;-2.094;2023-04-24T10:44:24;100289.19;;;8.24;100.00
27334;BME280;14817;57.104;-2.094;2023-04-24T10:46:55;100273.66;;;8.67;100.00
27334;BME280;14817;57.104;-2.094;2023-04-24T10:49:29;100274.50;;;9.40;100.00
27334;BME280;14817;57.104;-2.094;2023-04-24T10:52:01;100275.66;;;9.92;100.00
27334;BME280;14817;57.104;-2.094;2023-04-24T10:54:33;100271.69;;;9.96;100.00
27334;BME280;14817;57.104;-2.094;2023-04-24T10:59:48;100271.97;;;9.21;100.00
27334;BME280;14817;57.104;-2.094;2023-04-24T11:02:15;100280.22;;;8.72;100.00
27334;BME280;14817;57.104;-2.094;2023-04-24T11:04:43;100280.44;;;8.51;100.00
27334;BME280;14817;57.104;-2.094;2023-04-24T11:07:11;100282.75;;;9.29;100.00
27334;BME280;14817;57.104;-2.094;2023-04-24T11:09:38;100286.47;;;9.18;100.00
27334;BME280;14817;57.104;-2.094;2023-04-24T11:12:09;100288.31;;;9.81;100.00
27334;BME280;14817;57.104;-2.094;2023-04-24T11:17:33;100298.09;;;8.99;100.00
27334;BME280;14817;57.104;-2.094;2023-04-24T11:20:09;100313.75;;;8.47;100.00
27334;BME280;14817;57.104;-2.094;2023-04-24T11:22:54;100323.81;;;8.63;100.00
27334;BME280;14817;57.104;-2.094;2023-04-24T11:25:22;100309.19;;;9.05;100.00
27334;BME280;14817;57.104;-2.094;2023-04-24T11:28:03;100301.66;;;9.18;100.00
27334;BME280;14817;57.104;-2.094;2023-04-24T11:30:32;100291.56;;;9.57;100.00
27334;BME280;14817;57.104;-2.094;2023-04-24T11:33:03;100299.13;;;9.62;100.00
27334;BME280;14817;57.104;-2.094;2023-04-24T11:35:35;100313.38;;;9.35;100.00
27334;BME280;14817;57.104;-2.094;2023-04-24T11:38:06;100300.59;;;9.56;100.00
27334;BME280;14817;57.104;-2.094;2023-04-24T11:40:49;100324.06;;;9.35;100.00
27334;BME280;14817;57.104;-2.094;2023-04-24T11:43:16;100310.81;;;9.15;100.00
27334;BME280;14817;57.104;-2.094;2023-04-24T11:45:49;100324.63;;;8.64;100.00
27334;BME280;14817;57.104;-2.094;2023-04-24T11:48:20;100315.81;;;8.34;100.00
27334;BME280;14817;57.104;-2.094;2023-04-24T11:50:49;100331.44;;;8.38;100.00
27334;BME280;14817;57.104;-2.094;2023-04-24T11:53:19;100339.56;;;8.27;100.00
27334;BME280;14817;57.104;-2.094;2023-04-24T11:55:46;100332.03;;;8.13;100.00
27334;BME280;14817;57.104;-2.094;2023-04-24T11:58:13;100336.06;;;7.78;100.00
27334;BME280;14817;57.104;-2.094;2023-04-24T12:00:40;100338.69;;;8.66;100.00
27334;BME280;14817;57.104;-2.094;2023-04-24T12:03:11;100348.97;;;8.31;100.00
27334;BME280;14817;57.104;-2.094;2023-04-24T12:05:39;100349.69;;;9.00;100.00
27334;BME280;14817;57.104;-2.094;2023-04-24T12:08:06;100350.34;;;9.12;100.00
27334;BME280;14817;57.104;-2.094;2023-04-24T12:10:34;100374.22;;;8.66;100.00
27334;BME280;14817;57.104;-2.094;2023-04-24T12:13:01;100379.75;;;7.46;100.00
27334;BME280;14817;57.104;-2.094;2023-04-24T12:15:29;100395.84;;;7.35;100.00
27334;BME280;14817;57.104;-2.094;2023-04-24T12:17:56;100413.56;;;6.63;100.00
27334;BME280;14817;57.104;-2.094;2023-04-24T12:20:30;100397.53;;;6.00;100.00
27334;BME280;14817;57.104;-2.094;2023-04-24T12:22:59;100392.75;;;6.15;100.00
27334;BME280;14817;57.104;-2.094;2023-04-24T12:25:28;100391.75;;;6.27;100.00
27334;BME280;14817;57.104;-2.094;2023-04-24T12:28:09;100389.47;;;6.86;100.00
27334;BME280;14817;57.104;-2.094;2023-04-24T12:30:47;100384.50;;;7.33;100.00
27334;BME280;14817;57.104;-2.094;2023-04-24T12:33:19;100383.59;;;7.53;100.00
27334;BME280;14817;57.104;-2.094;2023-04-24T12:35:48;100386.88;;;7.86;100.00
27334;BME280;14817;57.104;-2.094;2023-04-24T12:38:16;100377.91;;;7.87;100.00
27334;BME280;14817;57.104;-2.094;2023-04-24T12:40:44;100372.28;;;8.10;100.00
27334;BME280;14817;57.104;-2.094;2023-04-24T12:43:16;100381.97;;;8.21;100.00
27334;BME280;14817;57.104;-2.094;2023-04-24T12:45:43;100385.34;;;8.32;100.00
27334;BME280;14817;57.104;-2.094;2023-04-24T12:48:11;100382.69;;;8.13;100.00
27334;BME280;14817;57.104;-2.094;2023-04-24T12:50:40;100384.72;;;7.61;100.00
27334;BME280;14817;57.104;-2.094;2023-04-24T12:53:11;100390.28;;;6.77;100.00
27334;BME280;14817;57.104;-2.094;2023-04-24T12:55:38;100404.66;;;7.26;100.00
27334;BME280;14817;57.104;-2.094;2023-04-24T12:58:04;100393.66;;;7.09;100.00
27334;BME280;14817;57.104;-2.094;2023-04-24T13:00:32;100397.09;;;7.31;100.00